sensor_id;sensor_type;location;lat;lon;timestamp;temperature;humidity
41557;DHT22;27720;51.992;5.890;2023-08-07T08:33:17;15.10;99.90
41557;DHT22;27720;51.992;5.890;2023-08-07T08:35:46;15.30;99.90
41557;DHT22;27720;51.992;5.890;2023-08-07T08:38:12;15.70;99.90
41557;DHT22;27720;51.992;5.890;2023-08-07T08:40:38;16.00;99.90
41557;DHT22;27720;51.992;5.890;2023-08-07T08:43:05;16.40;99.90
41557;DHT22;27720;51.992;5.890;2023-08-07T08:45:31;16.80;99.90
41557;DHT22;27720;51.992;5.890;2023-08-07T08:48:03;17.00;99.90
41557;DHT22;27720;51.992;5.890;2023-08-07T08:50:32;17.10;99.90
41557;DHT22;27720;51.992;5.890;2023-08-07T08:52:59;17.20;99.90
41557;DHT22;27720;51.992;5.890;2023-08-07T08:55:29;17.10;99.90
41557;DHT22;27720;51.992;5.890;2023-08-07T08:57:57;17.10;99.90
41557;DHT22;27720;51.992;5.890;2023-08-07T09:00:26;17.00;99.90
41557;DHT22;27720;51.992;5.890;2023-08-07T09:02:55;16.90;99.90
41557;DHT22;27720;51.992;5.890;2023-08-07T09:05:24;16.90;99.90
41557;DHT22;27720;51.992;5.890;2023-08-07T09:07:50;17.00;99.90
41557;DHT22;27720;51.992;5.890;2023-08-07T09:10:18;17.10;99.90
41557;DHT22;27720;51.992;5.890;2023-08-07T09:13:01;17.30;99.90
41557;DHT22;27720;51.992;5.890;2023-08-07T09:15:31;17.50;99.90
41557;DHT22;27720;51.992;5.890;2023-08-07T09:17:57;17.60;99.90
41557;DHT22;27720;51.992;5.890;2023-08-07T09:20:25;17.70;99.90
41557;DHT22;27720;51.992;5.890;2023-08-07T09:22:54;17.90;99.90
41557;DHT22;27720;51.992;5.890;2023-08-07T09:25:31;18.00;99.90
41557;DHT22;27720;51.992;5.890;2023-08-07T09:28:00;18.20;99.90
41557;DHT22;27720;51.992;5.890;2023-08-07T09:30:28;18.30;99.90
41557;DHT22;27720;51.992;5.890;2023-08-07T09:32:56;18.50;99.90
41557;DHT22;27720;51.992;5.890;2023-08-07T09:35:22;18.60;99.90
41557;DHT22;27720;51.992;5.890;2023-08-07T09:37:50;18.80;99.90
41557;DHT22;27720;51.992;5.890;2023-08-07T09:40:15;18.70;99.90
41557;DHT22;27720;51.992;5.890;2023-08-07T09:42:44;18.60;99.90
41557;DHT22;27720;51.992;5.890;2023-08-07T09:45:26;18.50;99.90
41557;DHT22;27720;51.992;5.890;2023-08-07T09:48:05;18.30;99.90
41557;DHT22;27720;51.992;5.890;2023-08-07T09:50:34;18.30;99.90
41557;DHT22;27720;51.992;5.890;2023-08-07T09:53:03;18.30;99.90
41557;DHT22;27720;51.992;5.890;2023-08-07T09:55:28;18.40;99.90
41557;DHT22;27720;51.992;5.890;2023-08-07T09:57:55;18.50;99.90
41557;DHT22;27720;51.992;5.890;2023-08-07T10:00:21;18.70;99.90
41557;DHT22;27720;51.992;5.890;2023-08-07T10:02:50;18.90;99.90
41557;DHT22;27720;51.992;5.890;2023-08-07T10:05:17;19.00;99.90
41557;DHT22;27720;51.992;5.890;2023-08-07T10:07:43;19.20;99.90
41557;DHT22;27720;51.992;5.890;2023-08-07T10:10:10;19.40;99.90
41557;DHT22;27720;51.992;5.890;2023-08-07T10:12:37;19.60;99.90
41557;DHT22;27720;51.992;5.890;2023-08-07T10:15:03;19.70;99.90
41557;DHT22;27720;51.992;5.890;2023-08-07T10:17:30;19.90;99.90
41557;DHT22;27720;51.992;5.890;2023-08-07T10:19:57;19.90;99.90
41557;DHT22;27720;51.992;5.890;2023-08-07T10:22:25;19.80;99.90
41557;DHT22;27720;51.992;5.890;2023-08-07T10:24:53;19.70;99.90
41557;DHT22;27720;51.992;5.890;2023-08-07T10:27:20;19.50;99.90
41557;DHT22;27720;51.992;5.890;2023-08-07T10:29:48;19.50;99.90
41557;DHT22;27720;51.992;5.890;2023-08-07T10:32:15;19.50;99.90
41557;DHT22;27720;51.992;5.890;2023-08-07T10:34:47;19.50;99.90
41557;DHT22;27720;51.992;5.890;2023-08-07T10:40:04;19.60;99.90
41557;DHT22;27720;51.992;5.890;2023-08-07T10:42:55;19.50;99.90
41557;DHT22;27720;51.992;5.890;2023-08-07T10:45:22;19.60;99.90
41557;DHT22;27720;51.992;5.890;2023-08-07T10:50:34;19.40;99.90
41557;DHT22;27720;51.992;5.890;2023-08-07T10:53:03;19.30;99.90
41557;DHT22;27720;51.992;5.890;2023-08-07T10:55:48;19.40;99.90
41557;DHT22;27720;51.992;5.890;2023-08-07T10:58:30;19.40;99.90
41557;DHT22;27720;51.992;5.890;2023-08-07T11:03:51;19.50;99.90
41557;DHT22;27720;51.992;5.890;2023-08-07T11:06:28;19.70;99.90
41557;DHT22;27720;51.992;5.890;2023-08-07T11:08:54;20.00;99.90
41557;DHT22;27720;51.992;5.890;2023-08-07T11:11:20;20.20;99.90
41557;DHT22;27720;51.992;5.890;2023-08-07T11:13:46;20.40;99.90
41557;DHT22;27720;51.992;5.890;2023-08-07T11:16:12;20.60;99.90
41557;DHT22;27720;51.992;5.890;2023-08-07T11:18:39;20.70;99.90
41557;DHT22;27720;51.992;5.890;2023-08-07T11:21:11;20.80;99.90
41557;DHT22;27720;51.992;5.890;2023-08-07T11:23:37;21.10;99.90
41557;DHT22;27720;51.992;5.890;2023-08-07T11:26:03;21.20;99.90
41557;DHT22;27720;51.992;5.890;2023-08-07T11:28:29;21.30;99.90
41557;DHT22;27720;51.992;5.890;2023-08-07T11:30:56;21.30;99.90
41557;DHT22;27720;51.992;5.890;2023-08-07T11:33:24;21.30;99.90
41557;DHT22;27720;51.992;5.890;2023-08-07T11:35:50;21.20;99.90
41557;DHT22;27720;51.992;5.890;2023-08-07T11:38:40;21.00;99.90
41557;DHT22;27720;51.992;5.890;2023-08-07T11:41:10;20.90;99.90
41557;DHT22;27720;51.992;5.890;2023-08-07T11:43:37;20.80;99.90
41557;DHT22;27720;51.992;5.890;2023-08-07T11:46:08;20.70;99.90
41557;DHT22;27720;51.992;5.890;2023-08-07T11:48:35;20.60;99.90
41557;DHT22;27720;51.992;5.890;2023-08-07T11:51:02;20.60;99.90
41557;DHT22;27720;51.992;5.890;2023-08-07T11:53:30;20.40;99.90
41557;DHT22;27720;51.992;5.890;2023-08-07T11:55:57;20.40;99.90
41557;DHT22;27720;51.992;5.890;2023-08-07T11:58:37;20.30;99.90
41557;DHT22;27720;51.992;5.890;2023-08-07T12:01:10;20.20;99.90
41557;DHT22;27720;51.992;5.890;2023-08-07T12:03:37;20.10;99.90
41557;DHT22;27720;51.992;5.890;2023-08-07T12:06:07;20.20;99.90
41557;DHT22;27720;51.992;5.890;2023-08-07T12:11:01;20.60;99.90
41557;DHT22;27720;51.992;5.890;2023-08-07T12:13:29;20.90;99.90
41557;DHT22;27720;51.992;5.890;2023-08-07T12:15:56;21.40;99.90
41557;DHT22;27720;51.992;5.890;2023-08-07T12:18:23;21.80;99.90
41557;DHT22;27720;51.992;5.890;2023-08-07T12:20:56;22.10;99.90
41557;DHT22;27720;51.992;5.890;2023-08-07T12:23:22;22.10;99.90
41557;DHT22;27720;51.992;5.890;2023-08-07T12:25:48;22.10;99.90
41557;DHT22;27720;51.992;5.890;2023-08-07T12:28:15;22.30;99.90
41557;DHT22;27720;51.992;5.890;2023-08-07T12:30:45;22.40;99.90
41557;DHT22;27720;51.992;5.890;2023-08-07T12:33:11;22.40;99.90
41557;DHT22;27720;51.992;5.890;2023-08-07T12:35:37;22.40;99.90
41557;DHT22;27720;51.992;5.890;2023-08-07T12:38:02;22.20;99.90
41557;DHT22;27720;51.992;5.890;2023-08-07T12:40:30;22.00;99.90
41557;DHT22;27720;51.992;5.890;2023-08-07T12:42:57;22.00;99.90
41557;DHT22;27720;51.992;5.890;2023-08-07T12:45:23;22.20;99.90
41557;DHT22;27720;51.992;5.890;2023-08-07T12:47:49;22.20;99.90
41557;DHT22;27720;51.992;5.890;2023-08-07T12:50:14;22.30;99.90
41557;DHT22;27720;51.992;5.890;2023-08-07T12:52:40;22.50;99.90
41557;DHT22;27720;51.992;5.890;2023-08-07T12:55:06;22.70;99.90
41557;DHT22;27720;51.992;5.890;2023-08-07T12:57:33;22.90;99.90
41557;DHT22;27720;51.992;5.890;2023-08-07T12:59:59;23.20;99.90
41557;DHT22;27720;51.992;5.890;2023-08-07T13:02:24;23.40;99.60
41557;DHT22;27720;51.992;5.890;2023-08-07T13:04:50;23.70;97.90
41557;DHT22;27720;51.992;5.890;2023-08-07T13:07:17;23.80;96.50
41557;DHT22;27720;51.992;5.890;2023-08-07T13:09:43;23.90;95.00
41557;DHT22;27720;51.992;5.890;2023-08-07T13:12:09;23.80;95.20
41557;DHT22;27720;51.992;5.890;2023-08-07T13:14:35;23.70;94.90
41557;DHT22;27720;51.992;5.890;2023-08-07T13:17:00;23.60;93.40
41557;DHT22;27720;51.992;5.890;2023-08-07T13:19:26;23.60;93.30
41557;DHT22;27720;51.992;5.890;2023-08-07T13:21:52;23.70;91.20
41557;DHT22;27720;51.992;5.890;2023-08-07T13:24:17;23.80;89.70
41557;DHT22;27720;51.992;5.890;2023-08-07T13:26:43;23.80;90.00
41557;DHT22;27720;51.992;5.890;2023-08-07T13:29:12;24.10;91.50
41557;DHT22;27720;51.992;5.890;2023-08-07T13:31:38;24.30;90.90
41557;DHT22;27720;51.992;5.890;2023-08-07T13:34:03;24.60;91.20
41557;DHT22;27720;51.992;5.890;2023-08-07T13:36:37;24.70;89.70
41557;DHT22;27720;51.992;5.890;2023-08-07T13:39:04;24.60;87.40
41557;DHT22;27720;51.992;5.890;2023-08-07T13:41:30;24.40;85.20
41557;DHT22;27720;51.992;5.890;2023-08-07T13:43:55;24.20;87.10
41557;DHT22;27720;51.992;5.890;2023-08-07T13:46:24;24.10;86.30
41557;DHT22;27720;51.992;5.890;2023-08-07T13:48:50;23.90;88.20
41557;DHT22;27720;51.992;5.890;2023-08-07T13:51:17;23.60;85.80
41557;DHT22;27720;51.992;5.890;2023-08-07T13:53:43;23.30;84.00
41557;DHT22;27720;51.992;5.890;2023-08-07T13:56:10;23.00;85.00
41557;DHT22;27720;51.992;5.890;2023-08-07T13:58:38;22.70;87.00
41557;DHT22;27720;51.992;5.890;2023-08-07T14:01:04;22.50;88.60
41557;DHT22;27720;51.992;5.890;2023-08-07T14:03:30;22.40;90.10
41557;DHT22;27720;51.992;5.890;2023-08-07T14:05:56;22.50;90.20
41557;DHT22;27720;51.992;5.890;2023-08-07T14:08:22;22.70;90.80
41557;DHT22;27720;51.992;5.890;2023-08-07T14:10:48;23.00;91.10
41557;DHT22;27720;51.992;5.890;2023-08-07T14:13:14;23.30;90.70
41557;DHT22;27720;51.992;5.890;2023-08-07T14:15:40;23.60;90.00
41557;DHT22;27720;51.992;5.890;2023-08-07T14:18:06;23.80;88.70
41557;DHT22;27720;51.992;5.890;2023-08-07T14:20:32;23.90;85.80
41557;DHT22;27720;51.992;5.890;2023-08-07T14:22:58;23.80;82.20
41557;DHT22;27720;51.992;5.890;2023-08-07T14:25:24;23.80;81.90
41557;DHT22;27720;51.992;5.890;2023-08-07T14:27:50;24.00;83.60
41557;DHT22;27720;51.992;5.890;2023-08-07T14:30:16;23.90;81.50
41557;DHT22;27720;51.992;5.890;2023-08-07T14:32:41;24.00;82.00
41557;DHT22;27720;51.992;5.890;2023-08-07T14:35:12;24.00;80.50
41557;DHT22;27720;51.992;5.890;2023-08-07T14:37:39;24.00;81.00
41557;DHT22;27720;51.992;5.890;2023-08-07T14:40:06;24.20;80.00
41557;DHT22;27720;51.992;5.890;2023-08-07T14:42:32;24.30;78.70
41557;DHT22;27720;51.992;5.890;2023-08-07T14:44:58;24.30;78.50
41557;DHT22;27720;51.992;5.890;2023-08-07T14:47:25;24.40;77.70
41557;DHT22;27720;51.992;5.890;2023-08-07T14:49:51;24.50;73.70
41557;DHT22;27720;51.992;5.890;2023-08-07T14:52:17;24.50;74.50
41557;DHT22;27720;51.992;5.890;2023-08-07T14:54:42;24.80;77.20
41557;DHT22;27720;51.992;5.890;2023-08-07T14:57:08;24.90;77.60
41557;DHT22;27720;51.992;5.890;2023-08-07T14:59:34;24.70;78.20
41557;DHT22;27720;51.992;5.890;2023-08-07T15:02:00;24.60;77.90
41557;DHT22;27720;51.992;5.890;2023-08-07T15:04:26;24.30;75.90
41557;DHT22;27720;51.992;5.890;2023-08-07T15:06:52;24.00;76.00
41557;DHT22;27720;51.992;5.890;2023-08-07T15:09:18;23.80;77.30
41557;DHT22;27720;51.992;5.890;2023-08-07T15:11:45;23.70;75.50
41557;DHT22;27720;51.992;5.890;2023-08-07T15:14:12;23.60;76.30
41557;DHT22;27720;51.992;5.890;2023-08-07T15:16:38;23.60;76.70
41557;DHT22;27720;51.992;5.890;2023-08-07T15:19:03;23.60;77.60
41557;DHT22;27720;51.992;5.890;2023-08-07T15:21:30;23.70;77.40
41557;DHT22;27720;51.992;5.890;2023-08-07T15:23:56;23.80;75.80
41557;DHT22;27720;51.992;5.890;2023-08-07T15:26:22;23.70;73.80
41557;DHT22;27720;51.992;5.890;2023-08-07T15:28:47;23.60;74.60
41557;DHT22;27720;51.992;5.890;2023-08-07T15:31:13;23.70;74.80
41557;DHT22;27720;51.992;5.890;2023-08-07T15:33:39;23.70;72.80
41557;DHT22;27720;51.992;5.890;2023-08-07T15:36:05;23.60;73.00
41557;DHT22;27720;51.992;5.890;2023-08-07T15:38:30;23.60;73.90
41557;DHT22;27720;51.992;5.890;2023-08-07T15:40:56;23.50;73.80
41557;DHT22;27720;51.992;5.890;2023-08-07T15:43:22;23.30;72.70
41557;DHT22;27720;51.992;5.890;2023-08-07T15:45:51;23.10;73.70
41557;DHT22;27720;51.992;5.890;2023-08-07T15:48:18;22.90;73.30
41557;DHT22;27720;51.992;5.890;2023-08-07T15:50:44;22.60;73.40
41557;DHT22;27720;51.992;5.890;2023-08-07T15:53:10;22.50;74.70
41557;DHT22;27720;51.992;5.890;2023-08-07T15:55:36;22.50;73.70
41557;DHT22;27720;51.992;5.890;2023-08-07T15:58:02;22.60;74.70
41557;DHT22;27720;51.992;5.890;2023-08-07T16:00:29;22.60;74.10
41557;DHT22;27720;51.992;5.890;2023-08-07T16:02:55;22.50;73.60
41557;DHT22;27720;51.992;5.890;2023-08-07T16:05:21;22.30;73.30
41557;DHT22;27720;51.992;5.890;2023-08-07T16:07:47;22.30;74.00
41557;DHT22;27720;51.992;5.890;2023-08-07T16:10:27;22.20;74.10
41557;DHT22;27720;51.992;5.890;2023-08-07T16:12:54;22.10;74.20
41557;DHT22;27720;51.992;5.890;2023-08-07T16:15:21;22.10;75.30
41557;DHT22;27720;51.992;5.890;2023-08-07T16:17:48;22.10;76.10
41557;DHT22;27720;51.992;5.890;2023-08-07T16:20:14;22.00;76.10
41557;DHT22;27720;51.992;5.890;2023-08-07T16:22:40;21.90;76.00
41557;DHT22;27720;51.992;5.890;2023-08-07T16:25:07;21.80;76.70
41557;DHT22;27720;51.992;5.890;2023-08-07T16:27:33;21.80;77.60
41557;DHT22;27720;51.992;5.890;2023-08-07T16:30:00;21.70;78.50
41557;DHT22;27720;51.992;5.890;2023-08-07T16:32:33;21.70;78.70
41557;DHT22;27720;51.992;5.890;2023-08-07T16:35:00;21.60;79.10
41557;DHT22;27720;51.992;5.890;2023-08-07T16:37:29;21.50;80.10
41557;DHT22;27720;51.992;5.890;2023-08-07T16:39:56;21.40;80.50
41557;DHT22;27720;51.992;5.890;2023-08-07T16:42:22;21.30;81.20
41557;DHT22;27720;51.992;5.890;2023-08-07T16:44:48;21.30;81.50
41557;DHT22;27720;51.992;5.890;2023-08-07T16:47:15;21.20;82.20
41557;DHT22;27720;51.992;5.890;2023-08-07T16:49:41;21.20;82.40
41557;DHT22;27720;51.992;5.890;2023-08-07T16:52:07;21.10;82.50
41557;DHT22;27720;51.992;5.890;2023-08-07T16:54:34;21.20;83.00
41557;DHT22;27720;51.992;5.890;2023-08-07T16:57:02;21.10;83.30
41557;DHT22;27720;51.992;5.890;2023-08-07T16:59:28;21.10;83.90
41557;DHT22;27720;51.992;5.890;2023-08-07T17:01:55;21.10;84.20
41557;DHT22;27720;51.992;5.890;2023-08-07T17:04:21;21.00;84.60
41557;DHT22;27720;51.992;5.890;2023-08-07T17:06:47;21.00;84.90
41557;DHT22;27720;51.992;5.890;2023-08-07T17:09:17;21.10;85.10
41557;DHT22;27720;51.992;5.890;2023-08-07T17:11:45;21.00;85.20
41557;DHT22;27720;51.992;5.890;2023-08-07T17:14:11;21.00;85.60
41557;DHT22;27720;51.992;5.890;2023-08-07T17:16:37;21.00;85.70
41557;DHT22;27720;51.992;5.890;2023-08-07T17:19:03;20.90;85.70
41557;DHT22;27720;51.992;5.890;2023-08-07T17:21:29;20.80;85.70
41557;DHT22;27720;51.992;5.890;2023-08-07T17:23:54;20.80;86.30
41557;DHT22;27720;51.992;5.890;2023-08-07T17:26:20;20.70;86.50
41557;DHT22;27720;51.992;5.890;2023-08-07T17:28:49;20.70;86.70
41557;DHT22;27720;51.992;5.890;2023-08-07T17:31:14;20.70;87.00
41557;DHT22;27720;51.992;5.890;2023-08-07T17:33:42;20.60;87.00
41557;DHT22;27720;51.992;5.890;2023-08-07T17:36:08;20.60;87.40
41557;DHT22;27720;51.992;5.890;2023-08-07T17:38:34;20.50;87.40
41557;DHT22;27720;51.992;5.890;2023-08-07T17:41:03;20.50;87.90
41557;DHT22;27720;51.992;5.890;2023-08-07T17:43:29;20.50;88.20
41557;DHT22;27720;51.992;5.890;2023-08-07T17:45:55;20.40;87.70
41557;DHT22;27720;51.992;5.890;2023-08-07T17:48:20;20.40;88.20
41557;DHT22;27720;51.992;5.890;2023-08-07T17:50:50;20.40;88.20
41557;DHT22;27720;51.992;5.890;2023-08-07T17:53:19;20.20;88.30
41557;DHT22;27720;51.992;5.890;2023-08-07T17:55:45;20.20;88.60
41557;DHT22;27720;51.992;5.890;2023-08-07T17:58:11;20.10;88.40
41557;DHT22;27720;51.992;5.890;2023-08-07T18:00:37;20.10;88.50
41557;DHT22;27720;51.992;5.890;2023-08-07T18:03:03;20.00;88.70
41557;DHT22;27720;51.992;5.890;2023-08-07T18:05:34;19.90;88.70
41557;DHT22;27720;51.992;5.890;2023-08-07T18:08:00;19.90;88.90
41557;DHT22;27720;51.992;5.890;2023-08-07T18:10:26;19.90;89.00
41557;DHT22;27720;51.992;5.890;2023-08-07T18:12:52;19.90;89.20
41557;DHT22;27720;51.992;5.890;2023-08-07T18:15:18;19.90;89.40
41557;DHT22;27720;51.992;5.890;2023-08-07T18:17:44;19.80;89.30
41557;DHT22;27720;51.992;5.890;2023-08-07T18:20:12;19.80;89.60
41557;DHT22;27720;51.992;5.890;2023-08-07T18:22:41;19.70;89.90
41557;DHT22;27720;51.992;5.890;2023-08-07T18:25:07;19.70;90.00
41557;DHT22;27720;51.992;5.890;2023-08-07T18:27:34;19.60;90.10
41557;DHT22;27720;51.992;5.890;2023-08-07T18:29:59;19.70;90.20
41557;DHT22;27720;51.992;5.890;2023-08-07T18:32:29;19.60;90.30
41557;DHT22;27720;51.992;5.890;2023-08-07T18:34:56;19.60;90.40
41557;DHT22;27720;51.992;5.890;2023-08-07T18:37:25;19.60;90.50
41557;DHT22;27720;51.992;5.890;2023-08-07T18:39:50;19.70;90.70
41557;DHT22;27720;51.992;5.890;2023-08-07T18:42:16;19.60;90.80
41557;DHT22;27720;51.992;5.890;2023-08-07T18:44:43;19.60;91.00
41557;DHT22;27720;51.992;5.890;2023-08-07T18:47:09;19.50;91.10
41557;DHT22;27720;51.992;5.890;2023-08-07T18:49:37;19.50;91.20
41557;DHT22;27720;51.992;5.890;2023-08-07T18:52:06;19.50;91.30
41557;DHT22;27720;51.992;5.890;2023-08-07T18:54:32;19.50;91.30
41557;DHT22;27720;51.992;5.890;2023-08-07T18:56:58;19.50;91.50
41557;DHT22;27720;51.992;5.890;2023-08-07T18:59:23;19.40;91.50
41557;DHT22;27720;51.992;5.890;2023-08-07T19:01:49;19.40;91.70
41557;DHT22;27720;51.992;5.890;2023-08-07T19:04:15;19.40;91.80
41557;DHT22;27720;51.992;5.890;2023-08-07T19:06:41;19.30;91.80
41557;DHT22;27720;51.992;5.890;2023-08-07T19:09:09;19.30;92.00
41557;DHT22;27720;51.992;5.890;2023-08-07T19:11:35;19.30;92.00
41557;DHT22;27720;51.992;5.890;2023-08-07T19:14:01;19.30;92.10
41557;DHT22;27720;51.992;5.890;2023-08-07T19:16:27;19.20;92.10
41557;DHT22;27720;51.992;5.890;2023-08-07T19:18:54;19.20;92.20
41557;DHT22;27720;51.992;5.890;2023-08-07T19:21:20;19.10;92.40
41557;DHT22;27720;51.992;5.890;2023-08-07T19:23:46;19.10;92.50
41557;DHT22;27720;51.992;5.890;2023-08-07T19:26:12;19.10;92.50
41557;DHT22;27720;51.992;5.890;2023-08-07T19:28:37;19.00;92.70
41557;DHT22;27720;51.992;5.890;2023-08-07T19:31:05;19.00;92.70
41557;DHT22;27720;51.992;5.890;2023-08-07T19:33:31;18.90;93.10
41557;DHT22;27720;51.992;5.890;2023-08-07T19:35:57;18.90;92.90
41557;DHT22;27720;51.992;5.890;2023-08-07T19:38:23;18.90;93.00
41557;DHT22;27720;51.992;5.890;2023-08-07T19:40:48;18.90;92.90
41557;DHT22;27720;51.992;5.890;2023-08-07T19:43:14;18.80;93.00
41557;DHT22;27720;51.992;5.890;2023-08-07T19:45:40;18.70;93.10
41557;DHT22;27720;51.992;5.890;2023-08-07T19:48:05;18.70;93.40
41557;DHT22;27720;51.992;5.890;2023-08-07T19:50:31;18.70;93.30
41557;DHT22;27720;51.992;5.890;2023-08-07T19:52:57;18.70;93.30
41557;DHT22;27720;51.992;5.890;2023-08-07T19:55:23;18.60;93.40
41557;DHT22;27720;51.992;5.890;2023-08-07T19:57:49;18.60;93.40
41557;DHT22;27720;51.992;5.890;2023-08-07T20:00:14;18.60;93.50
41557;DHT22;27720;51.992;5.890;2023-08-07T20:02:40;18.60;93.50
41557;DHT22;27720;51.992;5.890;2023-08-07T20:05:07;18.50;93.50
41557;DHT22;27720;51.992;5.890;2023-08-07T20:07:35;18.50;93.60
41557;DHT22;27720;51.992;5.890;2023-08-07T20:10:01;18.50;93.70
41557;DHT22;27720;51.992;5.890;2023-08-07T20:12:27;18.40;93.80
41557;DHT22;27720;51.992;5.890;2023-08-07T20:14:53;18.40;93.80
41557;DHT22;27720;51.992;5.890;2023-08-07T20:17:19;18.40;93.90
41557;DHT22;27720;51.992;5.890;2023-08-07T20:19:45;18.40;93.90
41557;DHT22;27720;51.992;5.890;2023-08-07T20:22:12;18.30;94.00
41557;DHT22;27720;51.992;5.890;2023-08-07T20:24:38;18.30;94.00
41557;DHT22;27720;51.992;5.890;2023-08-07T20:27:03;18.30;94.10
41557;DHT22;27720;51.992;5.890;2023-08-07T20:29:29;18.20;94.10
41557;DHT22;27720;51.992;5.890;2023-08-07T20:31:55;18.20;94.20
41557;DHT22;27720;51.992;5.890;2023-08-07T20:34:21;18.30;94.30
41557;DHT22;27720;51.992;5.890;2023-08-07T20:36:46;18.20;94.20
41557;DHT22;27720;51.992;5.890;2023-08-07T20:39:13;18.20;94.40
41557;DHT22;27720;51.992;5.890;2023-08-07T20:41:39;18.20;94.40
41557;DHT22;27720;51.992;5.890;2023-08-07T20:44:04;18.20;94.40
41557;DHT22;27720;51.992;5.890;2023-08-07T20:46:33;18.20;94.50
41557;DHT22;27720;51.992;5.890;2023-08-07T20:48:59;18.20;94.60
41557;DHT22;27720;51.992;5.890;2023-08-07T20:51:24;18.20;94.60
41557;DHT22;27720;51.992;5.890;2023-08-07T20:53:50;18.20;94.70
41557;DHT22;27720;51.992;5.890;2023-08-07T20:56:21;18.10;94.70
41557;DHT22;27720;51.992;5.890;2023-08-07T20:58:46;18.20;94.80
41557;DHT22;27720;51.992;5.890;2023-08-07T21:01:12;18.20;94.90
41557;DHT22;27720;51.992;5.890;2023-08-07T21:03:38;18.20;95.00
41557;DHT22;27720;51.992;5.890;2023-08-07T21:06:03;18.20;95.10
41557;DHT22;27720;51.992;5.890;2023-08-07T21:08:29;18.30;95.20
41557;DHT22;27720;51.992;5.890;2023-08-07T21:10:55;18.20;95.20
41557;DHT22;27720;51.992;5.890;2023-08-07T21:13:21;18.20;95.40
41557;DHT22;27720;51.992;5.890;2023-08-07T21:15:56;18.20;95.50
41557;DHT22;27720;51.992;5.890;2023-08-07T21:18:22;18.20;95.60
41557;DHT22;27720;51.992;5.890;2023-08-07T21:20:48;18.10;95.80
41557;DHT22;27720;51.992;5.890;2023-08-07T21:23:13;18.10;96.00
41557;DHT22;27720;51.992;5.890;2023-08-07T21:25:41;18.10;96.10
41557;DHT22;27720;51.992;5.890;2023-08-07T21:28:06;18.10;96.30
41557;DHT22;27720;51.992;5.890;2023-08-07T21:30:33;18.00;96.40
41557;DHT22;27720;51.992;5.890;2023-08-07T21:33:00;18.00;96.50
41557;DHT22;27720;51.992;5.890;2023-08-07T21:35:25;18.00;96.60
41557;DHT22;27720;51.992;5.890;2023-08-07T21:37:53;18.00;96.70
41557;DHT22;27720;51.992;5.890;2023-08-07T21:40:19;18.00;96.80
41557;DHT22;27720;51.992;5.890;2023-08-07T21:42:45;17.90;96.90
41557;DHT22;27720;51.992;5.890;2023-08-07T21:45:11;17.90;96.90
41557;DHT22;27720;51.992;5.890;2023-08-07T21:47:36;17.90;97.10
41557;DHT22;27720;51.992;5.890;2023-08-07T21:50:07;17.90;97.30
41557;DHT22;27720;51.992;5.890;2023-08-07T21:52:33;17.90;97.50
41557;DHT22;27720;51.992;5.890;2023-08-07T21:54:59;17.80;97.70
41557;DHT22;27720;51.992;5.890;2023-08-07T21:57:24;17.80;97.90
41557;DHT22;27720;51.992;5.890;2023-08-07T21:59:50;17.70;98.20
41557;DHT22;27720;51.992;5.890;2023-08-07T22:02:16;17.70;98.40
41557;DHT22;27720;51.992;5.890;2023-08-07T22:04:42;17.60;98.60
41557;DHT22;27720;51.992;5.890;2023-08-07T22:07:07;17.60;98.80
41557;DHT22;27720;51.992;5.890;2023-08-07T22:09:33;17.60;98.90
41557;DHT22;27720;51.992;5.890;2023-08-07T22:11:59;17.60;99.10
41557;DHT22;27720;51.992;5.890;2023-08-07T22:14:25;17.60;99.20
41557;DHT22;27720;51.992;5.890;2023-08-07T22:16:50;17.70;99.40
41557;DHT22;27720;51.992;5.890;2023-08-07T22:19:17;17.60;99.50
41557;DHT22;27720;51.992;5.890;2023-08-07T22:21:42;17.70;99.70
41557;DHT22;27720;51.992;5.890;2023-08-07T22:24:08;17.60;99.80
41557;DHT22;27720;51.992;5.890;2023-08-07T22:26:34;17.70;99.90
41557;DHT22;27720;51.992;5.890;2023-08-07T22:29:00;17.70;99.90
41557;DHT22;27720;51.992;5.890;2023-08-07T22:31:25;17.60;99.90
41557;DHT22;27720;51.992;5.890;2023-08-07T22:33:51;17.60;99.90
41557;DHT22;27720;51.992;5.890;2023-08-07T22:36:19;17.60;99.90
41557;DHT22;27720;51.992;5.890;2023-08-07T22:38:45;17.60;99.90
41557;DHT22;27720;51.992;5.890;2023-08-07T22:41:11;17.60;99.90
41557;DHT22;27720;51.992;5.890;2023-08-07T22:43:37;17.50;99.90
41557;DHT22;27720;51.992;5.890;2023-08-07T22:46:02;17.50;99.90
41557;DHT22;27720;51.992;5.890;2023-08-07T22:48:28;17.50;99.90
41557;DHT22;27720;51.992;5.890;2023-08-07T22:50:54;17.50;99.90
41557;DHT22;27720;51.992;5.890;2023-08-07T22:53:20;17.50;99.90
41557;DHT22;27720;51.992;5.890;2023-08-07T22:55:48;17.50;99.90
41557;DHT22;27720;51.992;5.890;2023-08-07T22:58:14;17.40;99.90
41557;DHT22;27720;51.992;5.890;2023-08-07T23:00:40;17.40;99.90
41557;DHT22;27720;51.992;5.890;2023-08-07T23:03:06;17.40;99.90
41557;DHT22;27720;51.992;5.890;2023-08-07T23:05:32;17.40;99.90
41557;DHT22;27720;51.992;5.890;2023-08-07T23:07:58;17.40;99.90
41557;DHT22;27720;51.992;5.890;2023-08-07T23:10:24;17.40;99.90
41557;DHT22;27720;51.992;5.890;2023-08-07T23:12:49;17.40;99.90
41557;DHT22;27720;51.992;5.890;2023-08-07T23:15:19;17.40;99.90
41557;DHT22;27720;51.992;5.890;2023-08-07T23:17:45;17.40;99.90
41557;DHT22;27720;51.992;5.890;2023-08-07T23:20:13;17.40;99.90
41557;DHT22;27720;51.992;5.890;2023-08-07T23:22:40;17.30;99.90
41557;DHT22;27720;51.992;5.890;2023-08-07T23:25:08;17.30;99.90
41557;DHT22;27720;51.992;5.890;2023-08-07T23:27:34;17.30;99.90
41557;DHT22;27720;51.992;5.890;2023-08-07T23:30:00;17.20;99.90
41557;DHT22;27720;51.992;5.890;2023-08-07T23:32:26;17.20;99.90
41557;DHT22;27720;51.992;5.890;2023-08-07T23:34:57;17.20;99.90
41557;DHT22;27720;51.992;5.890;2023-08-07T23:37:23;17.10;99.90
41557;DHT22;27720;51.992;5.890;2023-08-07T23:39:49;17.10;99.90
41557;DHT22;27720;51.992;5.890;2023-08-07T23:42:14;17.10;99.90
41557;DHT22;27720;51.992;5.890;2023-08-07T23:44:40;17.10;99.90
41557;DHT22;27720;51.992;5.890;2023-08-07T23:47:06;17.00;99.90
41557;DHT22;27720;51.992;5.890;2023-08-07T23:49:33;17.10;99.90
41557;DHT22;27720;51.992;5.890;2023-08-07T23:51:59;17.00;99.90
41557;DHT22;27720;51.992;5.890;2023-08-07T23:54:25;17.00;99.90
41557;DHT22;27720;51.992;5.890;2023-08-07T23:56:51;17.00;99.90
41557;DHT22;27720;51.992;5.890;2023-08-07T23:59:17;17.00;99.90
